Time;durP1;ratioP1;P1;durP2;ratioP2;P2;SDS_P1;SDS_P2;PMS_P1;PMS_P2;Temp;Humidity;BMP_temperature;BMP_pressure;BME280_temperature;BME280_humidity;BME280_pressure;Samples;Min_cycle;Max_cycle;Signal;HPM_P1;HPM_P2
2022/04/01 00:00:01;;;;;;;2.92;2.63;;;0.90;99.90;;;;;;5072046;28;20024;-77
2022/04/01 00:02:26;;;;;;;3.30;2.70;;;0.90;99.90;;;;;;5070883;28;20040;-78
2022/04/01 00:04:52;;;;;;;3.28;2.97;;;0.90;99.90;;;;;;5071995;28;20112;-78
2022/04/01 00:07:18;;;;;;;4.70;2.53;;;0.90;99.90;;;;;;5071686;28;20082;-77
2022/04/01 00:09:44;;;;;;;4.35;2.83;;;0.90;99.90;;;;;;5070974;28;20053;-79
2022/04/01 00:12:10;;;;;;;3.33;3.03;;;0.90;99.90;;;;;;5071621;28;20031;-78
2022/04/01 00:14:36;;;;;;;2.45;2.25;;;0.90;99.90;;;;;;5071778;28;20029;-78
2022/04/01 00:17:02;;;;;;;3.03;2.83;;;0.90;99.90;;;;;;5070918;28;20033;-78
2022/04/01 00:19:28;;;;;;;3.30;3.00;;;0.90;99.90;;;;;;5071416;28;20020;-77
2022/04/01 00:21:54;;;;;;;3.55;2.88;;;0.90;99.90;;;;;;5071818;28;20373;-78
2022/04/01 00:24:20;;;;;;;3.38;3.08;;;0.80;99.90;;;;;;5070678;28;20420;-77
2022/04/01 00:26:46;;;;;;;4.07;2.78;;;0.90;99.90;;;;;;5071731;28;20059;-77
2022/04/01 00:29:15;;;;;;;2.75;2.55;;;0.90;99.90;;;;;;5070744;28;20066;-77
2022/04/01 00:31:45;;;;;;;2.72;2.53;;;0.90;99.90;;;;;;5071978;28;20029;-78
2022/04/01 00:34:15;;;;;;;3.70;3.40;;;0.90;99.90;;;;;;5071481;28;20085;-77
2022/04/01 00:36:42;;;;;;;3.60;3.30;;;0.90;99.90;;;;;;5071156;28;20090;-77
2022/04/01 00:39:07;;;;;;;4.05;3.75;;;0.90;99.90;;;;;;5071339;28;20021;-77
2022/04/01 00:41:33;;;;;;;4.85;4.40;;;0.90;99.90;;;;;;5071554;28;20024;-78
2022/04/01 00:44:36;;;;;;;4.13;3.30;;;0.90;99.90;;;;;;5070828;28;20090;-77
2022/04/01 00:47:08;;;;;;;4.10;3.70;;;0.80;99.90;;;;;;5029325;28;20029;-77
2022/04/01 00:49:34;;;;;;;3.88;3.58;;;0.90;99.90;;;;;;5065028;28;20111;-77
2022/04/01 00:52:03;;;;;;;5.68;3.85;;;0.80;99.90;;;;;;5070720;28;20477;-77
2022/04/01 00:54:28;;;;;;;5.72;3.08;;;0.80;99.90;;;;;;5071297;28;20033;-78
2022/04/01 00:56:55;;;;;;;3.92;3.63;;;0.80;99.90;;;;;;5071456;28;20028;-77
2022/04/01 00:59:22;;;;;;;3.63;3.17;;;0.80;99.90;;;;;;5070585;28;20378;-79
2022/04/01 01:01:49;;;;;;;4.13;3.72;;;0.70;99.90;;;;;;5071534;28;20020;-77
2022/04/01 01:04:17;;;;;;;4.97;3.72;;;0.80;99.90;;;;;;5074593;28;20393;-78
2022/04/01 01:06:45;;;;;;;2.30;2.10;;;0.80;99.90;;;;;;5074463;28;20029;-77
2022/04/01 01:09:12;;;;;;;4.40;3.83;;;0.80;99.90;;;;;;5074469;28;20509;-77
2022/04/01 01:11:38;;;;;;;2.83;2.63;;;0.80;99.90;;;;;;5073936;28;20446;-78
2022/04/01 01:14:07;;;;;;;3.05;2.75;;;0.80;99.90;;;;;;5074981;28;20025;-78
2022/04/01 01:16:34;;;;;;;4.18;3.55;;;0.80;99.90;;;;;;5074857;28;20037;-78
2022/04/01 01:19:12;;;;;;;3.55;3.25;;;0.80;99.90;;;;;;5074004;28;20552;-78
2022/04/01 01:21:39;;;;;;;3.78;3.33;;;0.80;99.90;;;;;;5074844;28;20025;-77
2022/04/01 01:24:07;;;;;;;2.60;2.13;;;0.70;99.90;;;;;;5074860;28;20392;-77
2022/04/01 01:26:35;;;;;;;3.92;3.30;;;0.70;99.90;;;;;;5073850;28;20111;-78
2022/04/01 01:29:02;;;;;;;3.15;2.65;;;0.70;99.90;;;;;;5074663;28;20024;-77
2022/04/01 01:31:28;;;;;;;4.00;3.17;;;0.70;99.90;;;;;;5074164;28;20026;-78
2022/04/01 01:33:55;;;;;;;4.57;3.53;;;0.80;99.90;;;;;;5073826;28;20391;-76
2022/04/01 01:36:21;;;;;;;3.47;3.17;;;0.70;99.90;;;;;;5074209;28;20064;-77
2022/04/01 01:38:47;;;;;;;5.22;3.10;;;0.70;99.90;;;;;;5075006;28;20025;-77
2022/04/01 01:41:14;;;;;;;3.47;2.92;;;0.80;99.90;;;;;;5073632;28;20491;-78
2022/04/01 01:43:41;;;;;;;6.65;4.00;;;0.70;99.90;;;;;;5074325;28;20048;-77
2022/04/01 01:46:07;;;;;;;4.07;3.65;;;0.70;99.90;;;;;;5074117;28;20045;-76
2022/04/01 01:48:32;;;;;;;5.35;3.60;;;0.70;99.90;;;;;;5073488;28;20055;-79
2022/04/01 01:56:44;;;;;;;4.97;4.13;;;0.60;99.90;;;;;;5069093;28;20377;-76
2022/04/01 01:59:11;;;;;;;3.72;3.40;;;0.60;99.90;;;;;;5073930;28;20354;-77
2022/04/01 02:01:41;;;;;;;6.60;3.92;;;0.60;99.90;;;;;;5073314;28;20020;-77
2022/04/01 02:04:07;;;;;;;5.63;4.32;;;0.60;99.90;;;;;;5073777;28;20078;-78
2022/04/01 02:06:33;;;;;;;5.30;4.45;;;0.60;99.90;;;;;;5073735;28;20045;-78
2022/04/01 02:08:59;;;;;;;4.63;4.20;;;0.60;99.90;;;;;;5072831;28;20503;-77
2022/04/01 02:11:25;;;;;;;4.10;3.72;;;0.60;99.90;;;;;;5073425;28;20103;-77
2022/04/01 02:13:51;;;;;;;6.18;3.63;;;0.60;99.90;;;;;;5072515;28;20124;-77
2022/04/01 02:16:18;;;;;;;4.22;3.83;;;0.60;99.90;;;;;;5072720;28;20025;-77
2022/04/01 02:18:44;;;;;;;4.70;4.30;;;0.60;99.90;;;;;;5073423;28;20029;-78
2022/04/01 02:21:11;;;;;;;6.72;4.35;;;0.60;99.90;;;;;;5073435;28;20042;-76
2022/04/01 02:23:41;;;;;;;5.43;4.60;;;0.60;99.90;;;;;;5072904;28;20028;-76
2022/04/01 02:26:07;;;;;;;4.53;4.13;;;0.60;99.90;;;;;;5073214;28;20036;-77
2022/04/01 02:28:34;;;;;;;3.35;3.05;;;0.70;99.90;;;;;;5073788;28;20598;-77
2022/04/01 02:31:00;;;;;;;4.75;4.18;;;0.70;99.90;;;;;;5072882;28;20499;-76
2022/04/01 02:33:27;;;;;;;5.03;4.07;;;0.70;99.90;;;;;;5072988;28;20033;-77
2022/04/01 02:35:57;;;;;;;4.78;3.78;;;0.70;99.90;;;;;;5072620;28;20028;-78
2022/04/01 02:38:27;;;;;;;4.30;3.70;;;0.70;99.90;;;;;;5072925;28;20025;-78
2022/04/01 02:40:54;;;;;;;4.55;4.13;;;0.60;99.90;;;;;;5073295;28;20045;-76
2022/04/01 02:43:20;;;;;;;6.55;4.72;;;0.60;99.90;;;;;;5071930;28;20477;-77
2022/04/01 02:45:49;;;;;;;5.65;4.30;;;0.60;99.90;;;;;;5073078;28;20021;-76
2022/04/01 02:48:16;;;;;;;6.28;4.60;;;0.60;99.90;;;;;;5072565;28;20025;-77
2022/04/01 02:50:43;;;;;;;5.13;4.53;;;0.60;99.90;;;;;;5072229;28;20025;-76
2022/04/01 02:53:10;;;;;;;5.60;3.83;;;0.60;99.90;;;;;;5072554;28;20059;-78
2022/04/01 02:55:35;;;;;;;5.72;4.80;;;0.70;99.90;;;;;;5072832;28;20028;-78
2022/04/01 02:58:01;;;;;;;6.95;4.57;;;0.80;99.90;;;;;;5072161;28;20082;-77
2022/04/01 03:00:26;;;;;;;5.47;3.97;;;0.60;99.90;;;;;;5072476;28;20027;-78
2022/04/01 03:02:53;;;;;;;7.63;4.57;;;0.60;99.90;;;;;;5072828;28;20079;-77
2022/04/01 03:05:18;;;;;;;6.00;4.18;;;0.70;99.90;;;;;;5071618;28;20081;-77
2022/04/01 03:07:44;;;;;;;4.45;4.05;;;0.60;99.90;;;;;;5072361;28;20492;-76
2022/04/01 03:10:10;;;;;;;4.57;4.18;;;0.70;99.90;;;;;;5072515;28;20025;-76
2022/04/01 03:12:36;;;;;;;6.60;4.13;;;0.60;99.90;;;;;;5071992;28;20492;-77
2022/04/01 03:15:03;;;;;;;5.45;4.65;;;0.60;99.90;;;;;;5072730;28;20020;-78
2022/04/01 03:17:29;;;;;;;6.53;4.55;;;0.60;99.90;;;;;;5072332;28;20028;-79
2022/04/01 03:19:55;;;;;;;6.28;4.35;;;0.60;99.90;;;;;;5071831;28;20483;-78
2022/04/01 03:22:20;;;;;;;5.53;4.65;;;0.70;99.90;;;;;;5071957;28;20036;-78
2022/04/01 03:24:46;;;;;;;5.97;4.90;;;0.70;99.90;;;;;;5072267;28;20063;-77
2022/04/01 03:27:12;;;;;;;4.45;3.80;;;0.70;99.90;;;;;;5071413;28;20033;-78
2022/04/01 03:29:38;;;;;;;6.32;4.68;;;0.70;99.90;;;;;;5073403;28;20020;-78
2022/04/01 03:32:04;;;;;;;5.85;4.50;;;0.70;99.90;;;;;;5071716;28;20027;-78
2022/04/01 03:34:31;;;;;;;5.82;4.82;;;0.70;99.90;;;;;;5071940;28;20047;-78
2022/04/01 03:36:57;;;;;;;6.45;4.88;;;0.70;99.90;;;;;;5072215;28;20369;-78
2022/04/01 03:39:24;;;;;;;6.30;4.40;;;0.70;99.90;;;;;;5071059;28;20070;-78
2022/04/01 03:41:50;;;;;;;4.82;4.32;;;0.70;99.90;;;;;;5072347;28;20077;-77
2022/04/01 03:44:17;;;;;;;5.07;4.40;;;0.70;99.90;;;;;;5071773;28;20029;-77
2022/04/01 03:46:56;;;;;;;6.22;5.03;;;0.70;99.90;;;;;;5071301;28;20487;-77
2022/04/01 03:49:23;;;;;;;4.82;3.47;;;0.80;99.90;;;;;;5071757;28;20036;-76
2022/04/01 03:51:50;;;;;;;5.38;4.57;;;0.70;99.90;;;;;;5072318;28;20063;-76
2022/04/01 03:54:17;;;;;;;7.72;4.85;;;0.70;99.90;;;;;;5071111;28;20544;-76
2022/04/01 03:56:49;;;;;;;8.10;5.40;;;0.70;99.90;;;;;;5072649;28;20035;-77
2022/04/01 03:59:17;;;;;;;6.15;4.38;;;0.80;99.90;;;;;;5072042;28;20078;-77
2022/04/01 04:01:43;;;;;;;6.03;4.45;;;0.70;99.90;;;;;;5071315;28;20075;-77
2022/04/01 04:04:09;;;;;;;5.57;4.72;;;0.80;99.90;;;;;;5071625;28;20024;-77
2022/04/01 04:06:37;;;;;;;8.75;5.78;;;0.80;99.90;;;;;;5072050;28;20070;-76
2022/04/01 04:09:04;;;;;;;4.28;3.85;;;0.80;99.90;;;;;;5070976;28;20110;-77
2022/04/01 04:11:32;;;;;;;6.05;4.93;;;0.80;99.90;;;;;;5071637;28;20063;-77
2022/04/01 04:13:59;;;;;;;4.95;4.50;;;0.80;99.90;;;;;;5071926;28;20037;-76
2022/04/01 04:16:29;;;;;;;4.85;4.43;;;0.80;99.90;;;;;;5070543;28;20192;-76
2022/04/01 04:19:30;;;;;;;5.57;4.97;;;0.80;99.90;;;;;;5071926;28;20443;-76
2022/04/01 04:22:08;;;;;;;5.72;4.35;;;0.80;99.90;;;;;;5019561;28;20115;-76
2022/04/01 04:24:43;;;;;;;4.80;4.35;;;0.80;99.90;;;;;;5071370;28;20032;-76
2022/04/01 04:27:11;;;;;;;5.07;4.57;;;0.80;99.90;;;;;;5071231;28;20391;-76
2022/04/01 04:29:49;;;;;;;9.85;4.88;;;0.70;99.90;;;;;;5070969;28;20028;-78
2022/04/01 04:32:35;;;;;;;6.70;4.40;;;0.80;99.90;;;;;;5071584;28;20096;-76
2022/04/01 04:35:07;;;;;;;7.68;4.35;;;0.80;99.90;;;;;;5071543;28;20055;-76
2022/04/01 04:37:35;;;;;;;7.88;4.38;;;0.80;99.90;;;;;;5072437;28;20029;-77
2022/04/01 04:40:03;;;;;;;4.22;3.83;;;0.90;99.90;;;;;;5075605;28;20024;-76
2022/04/01 04:42:30;;;;;;;8.65;4.57;;;0.80;99.90;;;;;;5074162;28;20020;-77
2022/04/01 04:44:57;;;;;;;4.80;4.40;;;0.80;99.90;;;;;;5075392;28;20039;-76
2022/04/01 04:47:28;;;;;;;5.25;3.97;;;0.80;99.90;;;;;;5075094;28;20037;-76
2022/04/01 04:49:58;;;;;;;6.47;5.13;;;0.80;99.90;;;;;;5074449;28;20024;-76
2022/04/01 04:52:32;;;;;;;9.27;4.78;;;0.80;99.90;;;;;;5075278;28;20024;-77
2022/04/01 04:54:59;;;;;;;12.10;4.60;;;0.80;99.90;;;;;;5075649;28;20044;-77
2022/04/01 04:57:27;;;;;;;5.80;4.55;;;0.80;99.90;;;;;;5074284;28;20107;-77
2022/04/01 04:59:56;;;;;;;7.43;4.88;;;0.80;99.90;;;;;;5075137;28;20020;-77
2022/04/01 05:02:48;;;;;;;6.18;4.93;;;0.80;99.90;;;;;;5075220;28;20025;-77
2022/04/01 05:05:29;;;;;;;5.47;4.53;;;0.80;99.90;;;;;;5074206;28;20039;-76
2022/04/01 05:08:18;;;;;;;6.28;4.68;;;0.80;99.90;;;;;;5074993;28;20044;-77
2022/04/01 05:10:53;;;;;;;4.75;4.32;;;0.90;99.90;;;;;;5044188;28;20048;-75
2022/04/01 05:13:32;;;;;;;6.90;4.05;;;0.90;99.90;;;;;;5074605;28;20036;-76
2022/04/01 05:16:07;;;;;;;4.88;4.40;;;0.90;99.90;;;;;;5075083;28;20170;-76
2022/04/01 05:18:42;;;;;;;4.43;3.63;;;0.90;99.90;;;;;;5074031;28;20499;-74
2022/04/01 05:21:19;;;;;;;4.75;4.05;;;0.90;99.90;;;;;;5074458;28;20048;-75
2022/04/01 05:23:54;;;;;;;6.45;5.13;;;1.00;99.90;;;;;;5074993;28;20062;-75
2022/04/01 05:26:23;;;;;;;4.25;3.72;;;0.90;99.90;;;;;;5073831;28;20150;-75
2022/04/01 05:28:55;;;;;;;3.83;3.45;;;1.00;99.90;;;;;;5080284;28;20040;-75
2022/04/01 05:31:30;;;;;;;7.07;4.35;;;0.90;99.90;;;;;;5084789;28;20028;-75
2022/04/01 05:34:07;;;;;;;6.13;4.50;;;0.90;99.90;;;;;;5073001;28;20017;-74
2022/04/01 05:36:34;;;;;;;8.07;4.43;;;0.90;99.90;;;;;;5072801;28;20310;-75
2022/04/01 05:39:00;;;;;;;6.90;4.07;;;0.80;99.90;;;;;;5072122;28;20044;-76
2022/04/01 05:41:25;;;;;;;5.32;4.47;;;0.80;99.90;;;;;;5073072;28;20388;-76
2022/04/01 05:43:51;;;;;;;6.28;4.32;;;0.90;99.90;;;;;;5072866;28;20017;-76
2022/04/01 05:46:19;;;;;;;4.57;4.18;;;0.90;99.90;;;;;;5071966;28;20373;-76
2022/04/01 05:48:46;;;;;;;6.07;4.03;;;0.90;99.90;;;;;;5072745;28;20178;-76
2022/04/01 05:51:14;;;;;;;8.30;4.85;;;0.90;99.90;;;;;;5072578;28;20025;-73
2022/04/01 05:53:43;;;;;;;4.85;3.28;;;0.90;99.90;;;;;;5071575;28;20020;-73
2022/04/01 05:56:10;;;;;;;9.82;4.32;;;0.90;99.90;;;;;;5089735;28;20392;-74
2022/04/01 05:58:36;;;;;;;4.97;3.83;;;0.90;99.90;;;;;;5086729;28;20019;-74
2022/04/01 06:01:52;;;;;;;6.75;4.22;;;0.90;99.90;;;;;;5071470;28;20016;-74
2022/04/01 06:04:18;;;;;;;6.65;4.40;;;0.90;99.90;;;;;;5064434;28;20025;-73
2022/04/01 06:06:45;;;;;;;4.00;3.38;;;0.90;99.90;;;;;;5082393;28;20025;-74
2022/04/01 06:09:48;;;;;;;6.10;3.67;;;0.80;99.90;;;;;;5072363;28;20132;-74
2022/04/01 06:12:23;;;;;;;6.97;3.65;;;0.90;99.90;;;;;;5092010;28;20728;-73
2022/04/01 06:14:55;;;;;;;5.15;3.47;;;0.90;99.90;;;;;;5091986;28;20020;-73
2022/04/01 06:17:55;;;;;;;5.82;3.55;;;0.90;99.90;;;;;;5081302;28;20040;-73
2022/04/01 06:20:24;;;;;;;5.53;3.83;;;0.90;99.90;;;;;;5067398;28;20116;-74
2022/04/01 06:22:58;;;;;;;8.00;3.00;;;0.90;99.90;;;;;;5069365;28;20484;-73
2022/04/01 06:25:28;;;;;;;4.20;3.40;;;0.90;99.90;;;;;;5070092;28;20017;-76
2022/04/01 06:28:16;;;;;;;4.32;3.03;;;0.90;99.90;;;;;;5070941;28;20037;-77
2022/04/01 06:30:43;;;;;;;5.43;3.83;;;0.90;99.90;;;;;;5090204;28;20024;-73
2022/04/01 06:33:27;;;;;;;4.95;3.42;;;1.00;99.90;;;;;;5085335;28;20024;-73
2022/04/01 06:36:03;;;;;;;6.80;3.50;;;1.00;99.90;;;;;;5090239;28;20099;-73
2022/04/01 06:39:06;;;;;;;4.78;2.85;;;1.00;99.90;;;;;;5091999;28;20039;-73
2022/04/01 06:41:42;;;;;;;6.75;3.78;;;0.90;99.90;;;;;;5077961;28;20392;-74
2022/04/01 06:44:08;;;;;;;7.38;3.67;;;0.90;99.90;;;;;;5092497;28;20040;-75
2022/04/01 06:46:34;;;;;;;4.57;3.95;;;0.90;99.90;;;;;;5093289;28;20039;-76
2022/04/01 06:49:00;;;;;;;7.47;3.28;;;1.00;99.90;;;;;;5092549;28;20028;-75
2022/04/01 06:51:25;;;;;;;4.93;3.58;;;1.00;99.90;;;;;;5093104;28;20124;-76
2022/04/01 06:53:51;;;;;;;5.90;3.60;;;1.00;99.90;;;;;;5093340;28;20017;-74
2022/04/01 06:56:16;;;;;;;7.88;3.17;;;1.00;99.90;;;;;;5092307;28;20292;-74
2022/04/01 06:58:42;;;;;;;4.03;3.60;;;1.10;99.90;;;;;;5093229;28;20031;-75
2022/04/01 07:01:08;;;;;;;6.82;3.20;;;1.10;99.90;;;;;;5079254;28;20088;-74
2022/04/01 07:03:35;;;;;;;3.58;2.67;;;1.10;99.90;;;;;;5072488;28;20032;-73
2022/04/01 07:06:02;;;;;;;7.72;3.05;;;1.10;99.90;;;;;;5071230;28;20107;-74
2022/04/01 07:08:28;;;;;;;3.58;2.97;;;1.10;99.90;;;;;;5072286;28;20089;-73
2022/04/01 07:10:53;;;;;;;5.75;3.22;;;1.20;99.90;;;;;;5071289;28;20021;-73
2022/04/01 07:13:19;;;;;;;5.70;2.88;;;1.10;99.90;;;;;;5070951;28;20048;-74
2022/04/01 07:15:45;;;;;;;4.88;3.28;;;1.20;99.90;;;;;;5071861;28;20488;-73
2022/04/01 07:18:11;;;;;;;5.80;3.08;;;1.30;99.90;;;;;;5071158;28;20021;-74
2022/04/01 07:20:36;;;;;;;10.30;3.53;;;1.40;99.90;;;;;;5071998;28;20028;-74
2022/04/01 07:23:03;;;;;;;4.68;2.92;;;1.40;99.90;;;;;;5072348;28;20033;-74
2022/04/01 07:25:30;;;;;;;7.03;2.80;;;1.50;99.90;;;;;;5071352;28;20029;-73
2022/04/01 07:27:55;;;;;;;6.60;3.15;;;1.70;99.90;;;;;;5072316;28;20037;-74
2022/04/01 07:30:21;;;;;;;5.07;2.17;;;1.70;99.90;;;;;;5072312;28;20027;-73
2022/04/01 07:32:50;;;;;;;5.55;2.83;;;1.70;99.90;;;;;;5071863;28;20107;-73
2022/04/01 07:35:16;;;;;;;5.97;2.70;;;1.70;99.90;;;;;;5072126;28;20036;-73
2022/04/01 07:37:42;;;;;;;7.05;2.53;;;1.80;99.90;;;;;;5072423;28;20077;-73
2022/04/01 07:40:09;;;;;;;5.10;2.28;;;1.80;99.90;;;;;;5071301;28;20025;-73
2022/04/01 07:42:35;;;;;;;4.70;2.35;;;1.90;99.90;;;;;;5072115;28;20024;-73
2022/04/01 07:45:02;;;;;;;6.93;2.58;;;1.90;99.90;;;;;;5072370;28;20429;-74
2022/04/01 07:47:28;;;;;;;15.90;2.55;;;1.90;99.90;;;;;;5071267;28;20047;-73
2022/04/01 07:49:54;;;;;;;5.25;2.38;;;2.00;99.90;;;;;;5072048;28;20024;-73
2022/04/01 07:52:21;;;;;;;3.10;1.83;;;2.10;99.90;;;;;;5071304;28;20021;-74
2022/04/01 07:54:49;;;;;;;4.45;2.20;;;2.20;99.90;;;;;;5072190;28;20021;-74
2022/04/01 07:57:17;;;;;;;6.07;1.95;;;2.30;99.90;;;;;;5071647;28;20045;-74
2022/04/01 07:59:43;;;;;;;4.32;1.90;;;2.30;99.90;;;;;;5071073;28;20037;-75
2022/04/01 08:02:09;;;;;;;3.22;2.15;;;2.40;99.90;;;;;;5071945;28;20028;-74
2022/04/01 08:04:35;;;;;;;4.57;1.90;;;2.40;99.90;;;;;;5072069;28;20131;-74
2022/04/01 08:07:01;;;;;;;6.32;2.75;;;2.50;99.90;;;;;;5071210;28;20116;-74
2022/04/01 08:09:26;;;;;;;4.63;2.22;;;2.60;99.90;;;;;;5071552;28;20048;-73
2022/04/01 08:11:53;;;;;;;7.45;1.70;;;2.70;99.90;;;;;;5073893;28;20024;-74
2022/04/01 08:14:19;;;;;;;1.67;1.30;;;2.70;99.90;;;;;;5074981;28;20020;-73
2022/04/01 08:16:46;;;;;;;3.88;1.38;;;2.80;99.90;;;;;;5076174;28;20029;-73
2022/04/01 08:19:12;;;;;;;2.58;1.50;;;2.80;99.90;;;;;;5075948;28;20070;-73
2022/04/01 08:21:39;;;;;;;1.58;1.48;;;2.80;99.90;;;;;;5075319;28;20031;-74
2022/04/01 08:24:05;;;;;;;3.95;1.58;;;2.80;99.90;;;;;;5076837;28;20033;-74
2022/04/01 08:26:30;;;;;;;2.92;1.52;;;2.80;99.90;;;;;;5077005;28;20040;-74
2022/04/01 08:28:56;;;;;;;3.42;1.08;;;2.80;99.90;;;;;;5075399;28;20023;-74
2022/04/01 08:31:22;;;;;;;4.90;1.17;;;2.90;99.90;;;;;;5076086;28;20020;-74
2022/04/01 08:33:50;;;;;;;1.42;1.15;;;2.80;99.90;;;;;;5075816;28;20064;-75
2022/04/01 08:36:17;;;;;;;5.25;1.92;;;2.80;99.90;;;;;;5074643;28;20047;-74
2022/04/01 08:38:43;;;;;;;3.42;1.63;;;2.80;99.90;;;;;;5075645;28;20035;-74
2022/04/01 08:41:09;;;;;;;4.03;1.63;;;2.80;99.90;;;;;;5075180;28;20026;-75
2022/04/01 08:43:37;;;;;;;2.90;1.67;;;2.80;99.90;;;;;;5075156;28;20104;-74
2022/04/01 08:46:07;;;;;;;2.25;1.65;;;2.80;99.90;;;;;;5075427;28;20048;-75
2022/04/01 08:48:33;;;;;;;;;;;2.90;99.90;;;;;;5075121;28;20478;-73
2022/04/01 08:50:59;;;;;;;1.58;1.30;;;2.90;99.90;;;;;;5075455;28;20428;-74
2022/04/01 08:53:28;;;;;;;1.67;1.48;;;2.90;99.90;;;;;;5075144;28;20020;-75
2022/04/01 08:55:56;;;;;;;1.95;1.38;;;3.00;99.90;;;;;;5074923;28;20029;-73
2022/04/01 08:58:24;;;;;;;4.90;1.42;;;3.10;99.90;;;;;;5075153;28;20035;-74
2022/04/01 09:00:51;;;;;;;2.83;1.63;;;3.10;99.90;;;;;;5075322;28;20020;-73
2022/04/01 09:03:20;;;;;;;2.65;1.05;;;3.10;99.90;;;;;;5074233;28;20021;-74
2022/04/01 09:05:51;;;;;;;2.95;1.15;;;3.20;99.90;;;;;;5075121;28;20031;-73
2022/04/01 09:08:26;;;;;;;2.13;0.95;;;3.20;99.90;;;;;;5074674;28;20052;-73
2022/04/01 09:11:18;;;;;;;3.10;0.90;;;3.30;99.90;;;;;;5074534;28;20443;-74
2022/04/01 09:13:44;;;;;;;2.97;1.58;;;3.20;99.90;;;;;;5075067;28;20032;-74
2022/04/01 09:16:28;;;;;;;2.75;1.67;;;3.30;99.90;;;;;;5074533;28;20059;-74
2022/04/01 09:19:05;;;;;;;5.22;1.30;;;3.40;99.90;;;;;;5074420;28;20033;-74
2022/04/01 09:21:44;;;;;;;2.65;1.42;;;3.50;99.90;;;;;;5074732;28;20036;-75
2022/04/01 09:24:10;;;;;;;4.80;1.70;;;3.50;99.90;;;;;;5073093;28;20496;-73
2022/04/01 09:26:40;;;;;;;2.97;1.50;;;3.60;99.90;;;;;;5074678;28;20044;-74
2022/04/01 09:29:10;;;;;;;2.55;1.70;;;3.60;99.90;;;;;;5074678;28;20100;-74
2022/04/01 09:31:38;;;;;;;2.50;1.50;;;3.60;99.90;;;;;;5074082;28;20055;-73
2022/04/01 09:34:13;;;;;;;2.90;1.27;;;3.80;99.90;;;;;;5074494;28;20052;-72
2022/04/01 09:36:41;;;;;;;3.67;1.40;;;3.80;99.90;;;;;;5074485;28;20029;-74
2022/04/01 09:39:16;;;;;;;3.65;1.25;;;3.90;99.90;;;;;;5073760;28;20020;-73
2022/04/01 09:41:43;;;;;;;2.20;1.40;;;3.90;99.90;;;;;;5074516;28;20481;-74
2022/04/01 09:44:16;;;;;;;4.45;1.30;;;3.90;99.90;;;;;;5074239;28;20034;-73
2022/04/01 09:46:47;;;;;;;2.75;1.25;;;4.00;99.90;;;;;;5073831;28;20511;-73
2022/04/01 09:49:27;;;;;;;1.88;1.23;;;4.10;99.90;;;;;;5074550;28;20036;-73
2022/04/01 09:51:52;;;;;;;2.47;1.42;;;4.00;99.90;;;;;;5074592;28;20032;-73
2022/04/01 09:54:18;;;;;;;1.67;1.05;;;4.10;99.90;;;;;;5074114;28;20329;-74
2022/04/01 09:56:46;;;;;;;4.13;1.42;;;4.00;99.90;;;;;;5073960;28;20029;-73
2022/04/01 09:59:14;;;;;;;2.88;0.85;;;4.10;99.90;;;;;;5072948;28;20082;-74
2022/04/01 10:01:41;;;;;;;2.58;1.00;;;4.20;99.90;;;;;;5074232;28;20124;-72
2022/04/01 10:04:07;;;;;;;3.92;1.30;;;4.20;99.90;;;;;;5073510;28;20111;-74
2022/04/01 10:06:34;;;;;;;2.70;0.90;;;4.20;99.90;;;;;;5072797;28;20025;-73
2022/04/01 10:09:03;;;;;;;2.22;1.00;;;4.20;99.90;;;;;;5073839;28;20101;-73
2022/04/01 10:11:29;;;;;;;2.17;1.42;;;4.20;99.90;;;;;;5073513;28;20024;-74
2022/04/01 10:14:02;;;;;;;1.67;1.23;;;4.10;99.90;;;;;;5072944;28;20017;-73
2022/04/01 10:16:28;;;;;;;3.22;1.40;;;4.10;99.90;;;;;;5073201;28;20063;-73
2022/04/01 10:18:59;;;;;;;2.15;1.10;;;4.00;99.90;;;;;;5073381;28;20020;-73
2022/04/01 10:21:25;;;;;;;2.20;1.40;;;4.00;99.90;;;;;;5072633;28;20036;-74
2022/04/01 10:24:14;;;;;;;4.38;1.52;;;4.10;99.90;;;;;;5073491;28;20364;-74
2022/04/01 10:26:49;;;;;;;3.25;1.23;;;4.10;99.90;;;;;;5035638;28;20040;-74
2022/04/01 10:29:15;;;;;;;2.10;1.33;;;4.10;99.90;;;;;;5071581;28;20036;-74
2022/04/01 10:31:53;;;;;;;2.05;1.55;;;4.10;99.90;;;;;;5073385;28;20028;-73
2022/04/01 10:34:20;;;;;;;1.10;1.00;;;4.20;99.90;;;;;;5071856;28;20029;-74
2022/04/01 10:37:00;;;;;;;2.35;1.15;;;4.10;99.90;;;;;;5072744;28;20040;-73
2022/04/01 10:39:26;;;;;;;1.73;1.17;;;4.20;99.90;;;;;;5073013;28;20037;-74
2022/04/01 10:42:12;;;;;;;2.90;0.88;;;4.10;99.90;;;;;;5072524;28;20024;-75
2022/04/01 10:44:49;;;;;;;1.80;1.48;;;4.20;99.90;;;;;;5073278;28;20035;-73
2022/04/01 10:47:15;;;;;;;1.90;1.15;;;4.40;99.90;;;;;;5072766;28;20033;-74
2022/04/01 10:52:30;;;;;;;4.03;1.27;;;4.60;99.90;;;;;;5072574;28;20035;-74
2022/04/01 10:55:18;;;;;;;1.95;1.00;;;4.80;99.90;;;;;;5072962;28;20458;-74
2022/04/01 10:57:50;;;;;;;1.58;1.48;;;5.00;99.90;;;;;;5072874;28;20025;-76
2022/04/01 11:00:18;;;;;;;1.05;0.82;;;5.00;99.90;;;;;;5072402;28;20102;-76
2022/04/01 11:02:45;;;;;;;1.58;1.48;;;4.80;99.90;;;;;;5072127;28;20033;-76
2022/04/01 11:05:25;;;;;;;2.10;1.25;;;4.80;99.90;;;;;;5072374;28;20025;-74
2022/04/01 11:08:14;;;;;;;2.95;1.30;;;4.80;99.90;;;;;;5072373;28;20028;-76
2022/04/01 11:10:39;;;;;;;4.35;1.90;;;4.60;99.90;;;;;;5071765;28;20048;-75
2022/04/01 11:13:05;;;;;;;2.30;1.45;;;4.70;99.90;;;;;;5072428;28;20404;-75
2022/04/01 11:15:31;;;;;;;3.35;1.30;;;4.80;99.90;;;;;;5072258;28;20032;-75
2022/04/01 11:17:57;;;;;;;1.42;1.00;;;4.80;99.90;;;;;;5071749;28;20105;-75
2022/04/01 11:20:22;;;;;;;2.47;1.85;;;4.70;99.90;;;;;;5072063;28;20035;-75
2022/04/01 11:22:54;;;;;;;5.55;1.23;;;4.70;99.90;;;;;;5072428;28;20373;-76
2022/04/01 11:25:23;;;;;;;1.88;1.35;;;4.90;99.90;;;;;;5071418;28;20028;-76
2022/04/01 11:27:57;;;;;;;4.80;1.98;;;5.00;99.90;;;;;;5072101;28;20043;-76
2022/04/01 11:30:28;;;;;;;3.42;1.75;;;5.10;99.90;;;;;;5071574;28;20024;-76
2022/04/01 11:32:56;;;;;;;3.63;1.50;;;5.20;99.90;;;;;;5072484;28;20029;-77
2022/04/01 11:35:24;;;;;;;2.58;1.90;;;5.10;99.90;;;;;;5072281;28;20146;-77
2022/04/01 11:37:49;;;;;;;1.50;1.40;;;5.10;99.90;;;;;;5071273;28;20400;-76
2022/04/01 11:40:18;;;;;;;1.67;1.42;;;5.10;99.90;;;;;;5071765;28;20033;-77
2022/04/01 11:43:05;;;;;;;1.58;1.42;;;5.10;99.90;;;;;;5072458;28;20105;-76
2022/04/01 11:45:46;;;;;;;2.92;1.63;;;5.00;99.90;;;;;;5081447;28;20086;-76
2022/04/01 11:48:15;;;;;;;2.30;1.42;;;4.90;99.90;;;;;;5069640;28;20128;-77
2022/04/01 11:50:51;;;;;;;7.15;1.95;;;4.70;99.90;;;;;;5079848;28;20479;-78
2022/04/01 11:53:38;;;;;;;4.32;1.73;;;4.80;99.90;;;;;;5081612;28;20028;-76
2022/04/01 11:56:08;;;;;;;4.68;2.15;;;4.90;99.90;;;;;;5070609;28;20029;-76
2022/04/01 11:58:52;;;;;;;3.15;2.05;;;5.20;99.90;;;;;;5072791;28;20024;-76
2022/04/01 12:01:20;;;;;;;2.53;1.67;;;5.30;99.90;;;;;;5070188;28;20083;-76
2022/04/01 12:03:45;;;;;;;2.90;2.17;;;5.30;99.90;;;;;;5070835;28;20573;-76
2022/04/01 12:09:00;;;;;;;2.72;2.50;;;5.10;99.90;;;;;;5075667;28;20059;-77
2022/04/01 12:11:27;;;;;;;4.85;2.40;;;5.60;99.90;;;;;;5071946;28;20127;-76
2022/04/01 12:13:53;;;;;;;3.53;2.30;;;5.10;99.90;;;;;;5071672;28;20108;-76
2022/04/01 12:16:25;;;;;;;2.80;2.50;;;5.30;99.90;;;;;;5072712;28;20020;-77
2022/04/01 12:18:51;;;;;;;6.97;2.70;;;5.40;99.90;;;;;;5072128;28;20392;-77
2022/04/01 12:21:19;;;;;;;3.33;2.10;;;5.30;99.90;;;;;;5070614;28;20021;-76
2022/04/01 12:23:46;;;;;;;5.90;2.67;;;5.20;99.90;;;;;;5071749;28;20035;-76
2022/04/01 12:26:13;;;;;;;3.00;2.47;;;5.20;99.90;;;;;;5071680;28;20035;-75
2022/04/01 12:28:41;;;;;;;3.08;2.75;;;5.20;99.90;;;;;;5071971;28;20078;-75
2022/04/01 12:31:25;;;;;;;2.33;2.13;;;5.20;99.90;;;;;;5083883;28;20028;-74
2022/04/01 12:33:53;;;;;;;3.20;2.90;;;5.20;99.90;;;;;;5078051;28;20411;-74
2022/04/01 12:36:34;;;;;;;5.22;2.97;;;5.00;99.90;;;;;;5070403;28;20103;-74
2022/04/01 12:39:09;;;;;;;4.05;3.00;;;5.00;99.90;;;;;;5073323;28;20039;-75
2022/04/01 12:41:35;;;;;;;10.00;2.78;;;4.90;99.90;;;;;;5071099;28;20052;-73
2022/04/01 12:44:11;;;;;;;3.33;2.67;;;4.80;99.90;;;;;;5069878;28;20078;-73
2022/04/01 12:46:37;;;;;;;8.77;2.53;;;4.80;99.90;;;;;;5069701;28;20044;-73
2022/04/01 12:49:20;;;;;;;4.20;3.20;;;4.60;99.90;;;;;;5070314;28;20027;-73
2022/04/01 12:51:51;;;;;;;3.40;2.47;;;4.60;99.90;;;;;;5071503;28;20059;-73
2022/04/01 12:54:50;;;;;;;6.03;3.60;;;4.50;99.90;;;;;;5071025;28;20029;-74
2022/04/01 12:57:18;;;;;;;4.75;3.80;;;4.50;99.90;;;;;;5059388;28;20024;-73
2022/04/01 12:59:45;;;;;;;5.07;2.83;;;4.50;99.90;;;;;;5074607;28;20100;-74
2022/04/01 13:02:19;;;;;;;5.68;3.03;;;4.40;99.90;;;;;;5080885;28;20108;-75
2022/04/01 13:04:48;;;;;;;5.28;2.92;;;4.50;99.90;;;;;;5074868;28;20029;-74
2022/04/01 13:07:28;;;;;;;4.05;3.60;;;4.60;99.90;;;;;;5074524;28;20045;-74
2022/04/01 13:09:58;;;;;;;5.95;3.28;;;4.80;99.90;;;;;;5073967;28;20068;-73
2022/04/01 13:12:34;;;;;;;4.00;2.92;;;5.00;99.90;;;;;;5082556;28;20089;-74
2022/04/01 13:15:12;;;;;;;5.45;3.00;;;5.10;99.90;;;;;;5113259;28;20532;-74
2022/04/01 13:17:50;;;;;;;3.72;2.95;;;5.10;99.90;;;;;;5112679;28;20043;-75
2022/04/01 13:20:21;;;;;;;2.95;2.60;;;5.10;99.90;;;;;;5112727;28;20028;-74
2022/04/01 13:22:47;;;;;;;4.65;3.35;;;5.10;99.90;;;;;;5093340;28;20026;-75